Venezia, Italy

06:33 PM CEST del 24 Luglio 2016 (GMT +0200)
Venezia | | Change Station
Avvisi attivi: >

Alt. 14 ft 45.53 °N, 12.31 °E | Updated 32 seconds ago

Partly Cloudy
Parzialmente nuvoloso
84.9 °F
Sembra 89 °F
N
0.0
Vento Variabile Vento da Sud
Gusts 0.0 mph

Oggi
Massima -- | Minima -- °F
--% Possibilità di precip.
Ieri
Massima -- | Minima -- °F
Precip. -- in
Pressione 29.95 in
Visibilità 6.2 miglia
Nuvole Alcuni 7000 ft
Indice di calore 89 °F
Punto di rugiada 70 °F
Umidità 61%
Piovosità 0.00 in
Spessore del manto nevoso Non disponibile.
5:45 AM 8:47 PM
Gobba a levante, 75% visible
METAR LIPZ 241620Z 30006KT 9999 FEW070 29/19 Q1014 NOSIG
Pressione 29.95 in
Visibilità 6.2 miglia
Nuvole Alcuni 7000 ft
Indice di calore 89 °F
Punto di rugiada 70 °F
Umidità 61%
Piovosità 0.00 in
Spessore del manto nevoso Non disponibile.
5:45 AM 8:47 PM
Gobba a levante, 75% visible
METAR LIPZ 241620Z 30006KT 9999 FEW070 29/19 Q1014 NOSIG

10-Day Weather Forecast

×

Almanac

Astronomia

Jul. 24, 2016 Alba Tramonto
Ora attuale
Crepuscolo civile
Crepuscolo nautico
Crepuscolo astronomico
Luna
Estensione della luce visibile
Lunghezza del giorno
Tomorrow will be .
, % of the Moon is Illuminated

Gli estremi di oggi

Massime Regione Minime Regione

Community

WunderPhotos

Upload Photos

1,927,119 foto caricate!

WunderBlog® & News

Nearby

Qualità dell'aria

  Qualità dell'aria Indice AQ Inquinante
Not available.

Profondità neve

Stazione Profondità Altitudine

Attività sismica

Città  Distanza Mag. Data & Ora
Minimo Magnitudo Mostrato è 2.5.

Temperature delle acque costiere

Località Temperatura

Stations

Stazioni meteo nelle vicinanze

Ubicazione della stazione Temp. Raffreddamento del vento Punto di rugiada Umidità Vento Precip. Alt. Aggiornato Tipo